Rowena, Missouri
Current Conditions -  °F | °C
As of 6:54 PM on Wednesday 17 Dec 2014 (Local Time) from KCOU Reporting Station
Overcast Overcast  
Wind Chill: -3°   Ceiling: 8500
Heat Index:   Visibility: 10mi
Dew Point: -3°   Wind: 6mph
Humidity: 79%   Direction: 70°ENE
Pressure: 30.25"   Gusts: NA
Location:  39.2043°N, 92.1568°W
Report Text: KCOU 180054Z 07005KT 10SM OVC085 00/M03 A3025 RMK AO2 SLP253 T00001033
Loading
Personal Weather Stations






























Interactive Weather Map New forecast layout! Learn more

10-Day Weather Forecast

Advertisements
Track Severe Weather on mobile